createdAt,value
2018-08-06T00:04:52.145Z,3
2018-08-06T00:09:52.236Z,3
2018-08-06T00:14:52.312Z,3
2018-08-06T00:19:52.230Z,2
2018-08-06T00:24:52.202Z,3
2018-08-06T00:29:52.329Z,3
2018-08-06T00:34:52.431Z,3
2018-08-06T00:39:52.097Z,2
2018-08-06T00:44:52.168Z,3
2018-08-06T00:49:52.416Z,3
2018-08-06T00:54:52.240Z,3
2018-08-06T00:59:52.229Z,5
2018-08-06T01:04:52.383Z,4
2018-08-06T01:09:52.202Z,5
2018-08-06T01:14:52.350Z,4
2018-08-06T01:19:52.084Z,7
2018-08-06T01:24:52.308Z,5
2018-08-06T01:29:52.199Z,4
2018-08-06T01:34:52.237Z,5
2018-08-06T01:39:52.003Z,5
2018-08-06T01:44:52.244Z,2
2018-08-06T01:49:52.240Z,6
2018-08-06T01:54:52.240Z,5
2018-08-06T01:59:52.300Z,4
2018-08-06T02:04:52.137Z,4
2018-08-06T02:09:52.082Z,4
2018-08-06T02:14:52.259Z,5
2018-08-06T02:19:52.065Z,7
2018-08-06T02:24:52.085Z,4
2018-08-06T02:29:52.188Z,6
2018-08-06T02:34:52.192Z,4
2018-08-06T02:39:51.951Z,5
2018-08-06T02:44:52.047Z,4
2018-08-06T02:49:51.895Z,6
2018-08-06T02:54:52.078Z,7
2018-08-06T02:59:52.055Z,4
2018-08-06T03:04:51.902Z,4
2018-08-06T03:09:51.998Z,7
2018-08-06T03:14:51.971Z,6
2018-08-06T03:19:52.156Z,5
2018-08-06T03:24:52.004Z,7
2018-08-06T03:29:51.907Z,10
2018-08-06T03:34:51.845Z,6
2018-08-06T03:39:52.205Z,5
2018-08-06T03:44:52.048Z,6
2018-08-06T03:49:52.059Z,3
2018-08-06T03:54:51.839Z,6
2018-08-06T03:59:51.847Z,3
2018-08-06T04:04:51.879Z,3
2018-08-06T04:09:51.782Z,5
2018-08-06T04:14:52.124Z,4
2018-08-06T04:19:51.810Z,4
2018-08-06T04:24:51.816Z,6
2018-08-06T04:29:51.964Z,3
2018-08-06T04:34:51.697Z,6
2018-08-06T04:39:51.779Z,6
2018-08-06T04:44:51.911Z,6
2018-08-06T04:49:51.831Z,5
2018-08-06T04:54:51.829Z,5
2018-08-06T04:59:51.728Z,5
2018-08-06T05:04:51.886Z,5
2018-08-06T05:09:51.918Z,7
2018-08-06T05:14:51.719Z,7
2018-08-06T05:19:51.880Z,6
2018-08-06T05:24:51.690Z,4
2018-08-06T05:29:51.762Z,5
2018-08-06T05:34:51.691Z,8
2018-08-06T05:39:51.926Z,5
2018-08-06T05:44:51.641Z,3
2018-08-06T05:49:51.732Z,4
2018-08-06T05:54:51.664Z,6
2018-08-06T05:59:51.960Z,4
2018-08-06T06:04:51.905Z,5
2018-08-06T06:09:51.805Z,3
2018-08-06T06:14:51.643Z,6
2018-08-06T06:19:51.749Z,3
2018-08-06T06:24:51.725Z,6
2018-08-06T06:29:51.872Z,7
2018-08-06T06:34:51.956Z,6
2018-08-06T06:39:51.839Z,4
2018-08-06T06:44:51.712Z,5
2018-08-06T06:49:51.864Z,4
2018-08-06T06:54:51.541Z,7
2018-08-06T06:59:51.635Z,3
2018-08-06T07:04:51.515Z,6
2018-08-06T07:09:51.866Z,6
2018-08-06T07:14:51.497Z,9
2018-08-06T07:19:51.748Z,4
2018-08-06T07:24:51.727Z,3
2018-08-06T07:29:51.538Z,6
2018-08-06T07:34:51.683Z,4
2018-08-06T07:39:51.655Z,7
2018-08-06T07:44:51.604Z,2
2018-08-06T07:49:51.715Z,5
2018-08-06T07:54:51.743Z,8
2018-08-06T07:59:51.900Z,3
2018-08-06T08:04:51.787Z,4
2018-08-06T08:09:51.625Z,5
2018-08-06T08:14:51.617Z,5
2018-08-06T08:19:51.841Z,3
2018-08-06T08:24:51.422Z,7
2018-08-06T08:29:51.480Z,6
2018-08-06T08:34:51.550Z,4
2018-08-06T08:39:51.500Z,5
2018-08-06T08:44:51.399Z,1
2018-08-06T08:49:51.445Z,2
2018-08-06T08:54:51.724Z,7
2018-08-06T08:59:51.589Z,5
2018-08-06T09:04:51.383Z,5
2018-08-06T09:09:51.390Z,3
2018-08-06T09:14:51.390Z,4
2018-08-06T09:19:51.365Z,7
2018-08-06T09:24:52.686Z,3
2018-08-06T09:29:51.636Z,3
2018-08-06T09:34:51.352Z,4
2018-08-06T09:39:51.546Z,2
2018-08-06T09:44:51.390Z,5
2018-08-06T09:49:51.335Z,4
2018-08-06T09:54:51.330Z,6
2018-08-06T09:59:51.421Z,7
2018-08-06T10:04:51.421Z,5
2018-08-06T10:09:51.500Z,3
2018-08-06T10:14:51.334Z,3
2018-08-06T10:19:51.433Z,3
2018-08-06T10:24:51.351Z,4
2018-08-06T10:29:51.283Z,3
2018-08-06T10:34:51.245Z,3
2018-08-06T10:39:51.489Z,3
2018-08-06T10:44:51.445Z,4
2018-08-06T10:49:51.374Z,2
2018-08-06T10:54:51.279Z,6
2018-08-06T10:59:51.225Z,4
2018-08-06T11:04:51.178Z,3
2018-08-06T11:09:51.212Z,3
2018-08-06T11:14:51.185Z,3
2018-08-06T11:19:51.391Z,3
2018-08-06T11:24:51.362Z,3
2018-08-06T11:29:51.524Z,3
2018-08-06T11:34:51.274Z,3
2018-08-06T11:39:51.190Z,3
2018-08-06T11:44:51.253Z,5
2018-08-06T11:49:51.187Z,3
2018-08-06T11:54:51.235Z,2
2018-08-06T11:59:51.361Z,3
2018-08-06T12:04:51.386Z,3
2018-08-06T12:09:51.078Z,4
2018-08-06T12:14:51.229Z,4
2018-08-06T12:19:51.241Z,2
2018-08-06T12:24:51.050Z,3
2018-08-06T12:29:51.161Z,3
2018-08-06T12:34:52.225Z,3
2018-08-06T12:39:52.321Z,4
2018-08-06T12:44:54.611Z,3
2018-08-06T12:49:51.085Z,2
2018-08-06T12:54:51.037Z,2
2018-08-06T12:59:50.983Z,2
2018-08-06T13:04:51.065Z,6
2018-08-06T13:09:51.208Z,4
2018-08-06T13:14:51.078Z,5
2018-08-06T13:19:51.327Z,4
2018-08-06T13:24:50.989Z,3
2018-08-06T13:29:51.205Z,4
2018-08-06T13:34:51.217Z,10
2018-08-06T13:39:50.913Z,2
2018-08-06T13:44:51.274Z,3
2018-08-06T13:49:50.927Z,3
2018-08-06T13:54:51.115Z,5
2018-08-06T13:59:50.925Z,3
2018-08-06T14:04:51.160Z,3
2018-08-06T14:09:51.033Z,2
2018-08-06T14:14:51.116Z,5
2018-08-06T14:19:50.917Z,5
2018-08-06T14:24:51.140Z,4
2018-08-06T14:29:50.928Z,3
2018-08-06T14:34:51.184Z,4
2018-08-06T14:39:50.967Z,4
2018-08-06T14:44:51.138Z,5
2018-08-06T14:49:51.144Z,4
2018-08-06T14:54:51.106Z,3
2018-08-06T14:59:50.857Z,6
2018-08-06T15:04:50.813Z,6
2018-08-06T15:09:51.108Z,3
2018-08-06T15:14:51.051Z,2
2018-08-06T15:19:51.069Z,6
2018-08-06T15:24:50.783Z,6
2018-08-06T15:29:50.930Z,4
2018-08-06T15:34:50.890Z,7
2018-08-06T15:39:50.877Z,5
2018-08-06T15:44:51.014Z,3
2018-08-06T15:49:50.729Z,6
2018-08-06T15:54:50.889Z,3
2018-08-06T15:59:50.803Z,5
2018-08-06T16:04:50.839Z,5
2018-08-06T16:09:50.733Z,6
2018-08-06T16:14:50.921Z,4
2018-08-06T16:19:50.963Z,8
2018-08-06T16:24:50.929Z,5
2018-08-06T16:29:50.682Z,6
2018-08-06T16:34:51.035Z,9
2018-08-06T16:39:50.782Z,25
2018-08-06T16:44:50.937Z,26
2018-08-06T16:49:50.949Z,8
2018-08-06T16:54:50.894Z,45
2018-08-06T16:59:50.625Z,50
2018-08-06T17:04:50.960Z,35
2018-08-06T17:09:50.724Z,10
2018-08-06T17:14:50.803Z,6
2018-08-06T17:19:50.913Z,23
2018-08-06T17:24:50.750Z,8
2018-08-06T17:29:50.755Z,5
2018-08-06T17:34:50.874Z,7
2018-08-06T17:39:50.648Z,4
2018-08-06T17:44:50.793Z,5
2018-08-06T17:49:50.672Z,3
2018-08-06T17:54:50.730Z,4
2018-08-06T17:59:50.599Z,5
2018-08-06T18:04:50.720Z,4
2018-08-06T18:09:50.733Z,6
2018-08-06T18:14:50.853Z,5
2018-08-06T18:19:50.524Z,4
2018-08-06T18:24:50.826Z,7
2018-08-06T18:29:50.756Z,2
2018-08-06T18:34:50.769Z,5
2018-08-06T18:39:50.504Z,6
2018-08-06T18:44:50.794Z,5
2018-08-06T18:49:50.466Z,5
2018-08-06T18:54:50.821Z,5
2018-08-06T18:59:50.818Z,4
2018-08-06T19:04:50.477Z,4
2018-08-06T19:09:50.569Z,4
2018-08-06T19:14:50.739Z,5
2018-08-06T19:19:50.717Z,6
2018-08-06T19:24:50.517Z,6
2018-08-06T19:29:50.396Z,11
2018-08-06T19:34:50.780Z,8
2018-08-06T19:39:50.389Z,7
2018-08-06T19:44:50.490Z,7
2018-08-06T19:49:50.438Z,5
2018-08-06T19:54:50.708Z,7
2018-08-06T19:59:50.564Z,5
2018-08-06T20:04:50.553Z,8
2018-08-06T20:09:50.558Z,7
2018-08-06T20:14:50.606Z,5
2018-08-06T20:19:50.337Z,6
2018-08-06T20:24:50.388Z,10
2018-08-06T20:29:50.672Z,5
2018-08-06T20:34:50.337Z,6
2018-08-06T20:39:50.346Z,8
2018-08-06T20:44:50.452Z,8
2018-08-06T20:49:50.669Z,9
2018-08-06T20:54:50.596Z,6
2018-08-06T20:59:50.582Z,9
2018-08-06T21:04:50.639Z,5
2018-08-06T21:09:50.270Z,8
2018-08-06T21:14:50.498Z,5
2018-08-06T21:19:50.273Z,5
2018-08-06T21:24:50.405Z,7
2018-08-06T21:29:50.571Z,7
2018-08-06T21:34:50.275Z,8
2018-08-06T21:39:50.306Z,12
2018-08-06T21:44:50.379Z,6
2018-08-06T21:49:50.237Z,9
2018-08-06T21:54:50.416Z,5
2018-08-06T21:59:50.346Z,6
2018-08-06T22:04:50.369Z,6
2018-08-06T22:09:50.531Z,10
2018-08-06T22:14:50.153Z,9
2018-08-06T22:19:50.426Z,6
2018-08-06T22:24:50.171Z,6
2018-08-06T22:29:50.244Z,12
2018-08-06T22:34:50.163Z,6
2018-08-06T22:39:50.203Z,10
2018-08-06T22:44:50.141Z,6
2018-08-06T22:49:50.267Z,7
2018-08-06T22:54:50.448Z,13
2018-08-06T22:59:50.077Z,11
2018-08-06T23:04:50.157Z,7
2018-08-06T23:09:50.435Z,7
2018-08-06T23:14:50.086Z,8
2018-08-06T23:19:50.198Z,8
2018-08-06T23:24:50.333Z,7
2018-08-06T23:29:50.166Z,10
2018-08-06T23:34:50.171Z,6
2018-08-06T23:39:50.141Z,8
2018-08-06T23:44:50.165Z,9
2018-08-06T23:49:50.257Z,6
2018-08-06T23:54:50.196Z,6
2018-08-06T23:59:50.176Z,8
